Time;durP1;ratioP1;P1;durP2;ratioP2;P2;SDS_P1;SDS_P2;PMS_P1;PMS_P2;Temp;Humidity;BMP_temperature;BMP_pressure;BME280_temperature;BME280_humidity;BME280_pressure;Samples;Min_cycle;Max_cycle;Signal;HPM_P1;HPM_P2
2024/03/29 00:01:33;;;;;;;8.68;7.40;;;;;;;;;;5155505;27;20019;-61
2024/03/29 00:03:59;;;;;;;10.52;7.13;;;;;;;;;;5155543;27;20480;-61
2024/03/29 00:06:25;;;;;;;7.57;6.47;;;;;;;;;;5155395;27;20078;-60
2024/03/29 00:08:51;;;;;;;7.63;6.60;;;;;;;;;;5155348;27;20023;-61
2024/03/29 00:11:17;;;;;;;7.75;7.00;;;;;;;;;;5155631;27;20030;-60
2024/03/29 00:13:43;;;;;;;9.80;7.03;;;;;;;;;;5155137;27;20451;-60
2024/03/29 00:16:09;;;;;;;9.25;8.05;;;;;;;;;;5155572;27;20026;-61
2024/03/29 00:18:35;;;;;;;8.20;7.18;;;;;;;;;;5155010;27;20373;-61
2024/03/29 00:21:01;;;;;;;8.65;7.60;;;;;;;;;;5153844;27;20034;-61
2024/03/29 00:23:28;;;;;;;8.85;7.72;;;;;;;;;;5149814;27;20030;-61
2024/03/29 00:25:57;;;;;;;9.40;8.40;;;;;;;;;;5154833;27;20058;-61
2024/03/29 00:28:23;;;;;;;11.65;8.38;;;;;;;;;;5154891;27;20491;-61
2024/03/29 00:30:50;;;;;;;9.10;8.20;;;;;;;;;;5154635;27;20027;-61
2024/03/29 00:33:16;;;;;;;9.30;7.80;;;;;;;;;;5153965;27;20462;-60
2024/03/29 00:35:42;;;;;;;10.30;8.60;;;;;;;;;;5154976;27;20400;-61
2024/03/29 00:38:08;;;;;;;10.73;8.65;;;;;;;;;;5136166;27;20037;-61
2024/03/29 00:40:33;;;;;;;13.63;9.80;;;;;;;;;;5154678;27;20030;-60
2024/03/29 00:42:59;;;;;;;10.27;9.15;;;;;;;;;;5154725;27;20022;-61
2024/03/29 00:45:25;;;;;;;10.05;9.02;;;;;;;;;;5154550;27;20060;-61
2024/03/29 00:47:51;;;;;;;12.30;9.98;;;;;;;;;;5154351;27;20026;-60
2024/03/29 00:50:17;;;;;;;11.07;9.25;;;;;;;;;;5154519;27;20425;-60
2024/03/29 00:52:43;;;;;;;10.45;8.73;;;;;;;;;;5154382;27;20027;-60
2024/03/29 00:55:09;;;;;;;11.85;8.43;;;;;;;;;;5154372;27;20506;-61
2024/03/29 00:57:35;;;;;;;11.60;8.88;;;;;;;;;;5154356;27;20063;-60
2024/03/29 01:00:03;;;;;;;10.57;8.30;;;;;;;;;;5154474;27;20420;-60
2024/03/29 01:02:29;;;;;;;12.98;9.35;;;;;;;;;;5154410;27;20075;-61
2024/03/29 01:04:55;;;;;;;11.55;9.30;;;;;;;;;;5154210;27;20072;-61
2024/03/29 01:07:21;;;;;;;9.20;8.30;;;;;;;;;;5154230;27;20029;-61
2024/03/29 01:09:47;;;;;;;9.18;8.20;;;;;;;;;;5135541;27;20033;-61
2024/03/29 01:12:13;;;;;;;13.73;8.90;;;;;;;;;;5154282;27;20075;-61
2024/03/29 01:14:40;;;;;;;10.20;7.97;;;;;;;;;;5154065;27;20035;-61
2024/03/29 01:17:07;;;;;;;10.75;8.38;;;;;;;;;;5154228;27;20134;-61
2024/03/29 01:19:33;;;;;;;10.57;9.52;;;;;;;;;;5154181;27;20026;-61
2024/03/29 01:21:59;;;;;;;10.05;9.05;;;;;;;;;;5154077;27;20069;-61
2024/03/29 01:24:25;;;;;;;9.80;8.80;;;;;;;;;;5153928;27;20496;-61
2024/03/29 01:26:51;;;;;;;11.75;9.02;;;;;;;;;;5154034;27;20021;-61
2024/03/29 01:29:17;;;;;;;10.27;8.60;;;;;;;;;;5135359;27;20086;-61
2024/03/29 01:31:43;;;;;;;11.95;9.43;;;;;;;;;;5141972;27;20102;-61
2024/03/29 01:34:09;;;;;;;13.88;9.70;;;;;;;;;;5151467;27;20050;-60
2024/03/29 01:36:35;;;;;;;13.90;9.45;;;;;;;;;;5153917;27;20022;-61
2024/03/29 01:39:02;;;;;;;11.68;9.05;;;;;;;;;;5153740;27;20058;-60
2024/03/29 01:41:28;;;;;;;13.25;10.35;;;;;;;;;;5154025;27;20468;-61
2024/03/29 01:43:54;;;;;;;12.57;9.63;;;;;;;;;;5153532;27;20129;-61
2024/03/29 01:46:21;;;;;;;14.35;10.20;;;;;;;;;;5134994;27;20031;-61
2024/03/29 01:48:47;;;;;;;10.50;9.43;;;;;;;;;;5153687;27;20027;-61
2024/03/29 01:51:17;;;;;;;10.73;9.60;;;;;;;;;;5153878;27;20034;-61
2024/03/29 01:53:44;;;;;;;11.00;9.88;;;;;;;;;;5153997;27;20033;-61
2024/03/29 01:56:10;;;;;;;14.93;10.13;;;;;;;;;;5135090;27;20415;-61
2024/03/29 01:58:37;;;;;;;12.95;9.63;;;;;;;;;;5153544;27;20030;-60
2024/03/29 02:01:03;;;;;;;11.10;9.90;;;;;;;;;;5153631;27;20098;-61
2024/03/29 02:03:29;;;;;;;10.68;8.95;;;;;;;;;;5153566;27;20159;-61
2024/03/29 02:05:57;;;;;;;11.65;9.93;;;;;;;;;;5153410;27;20043;-61
2024/03/29 02:08:23;;;;;;;10.93;9.43;;;;;;;;;;5153479;27;20011;-60
2024/03/29 02:10:51;;;;;;;10.98;9.93;;;;;;;;;;5130266;27;20268;-61
2024/03/29 02:13:17;;;;;;;11.68;10.48;;;;;;;;;;5150167;27;20452;-61
2024/03/29 02:15:43;;;;;;;12.52;9.65;;;;;;;;;;5151233;27;20055;-61
2024/03/29 02:18:09;;;;;;;10.00;8.98;;;;;;;;;;5152541;27;20026;-61
2024/03/29 02:20:39;;;;;;;12.07;10.60;;;;;;;;;;5144701;27;20098;-61
2024/03/29 02:23:10;;;;;;;13.00;9.65;;;;;;;;;;5150134;27;20038;-61
2024/03/29 02:25:37;;;;;;;11.43;10.10;;;;;;;;;;5152921;27;20361;-61
2024/03/29 02:28:03;;;;;;;11.70;9.63;;;;;;;;;;5151440;27;20037;-61
2024/03/29 02:30:30;;;;;;;11.38;10.18;;;;;;;;;;5152494;27;20512;-61
2024/03/29 02:32:56;;;;;;;13.45;11.07;;;;;;;;;;5144936;27;20054;-61
2024/03/29 02:35:22;;;;;;;12.15;10.88;;;;;;;;;;5145740;27;20038;-61
2024/03/29 02:37:48;;;;;;;11.50;9.95;;;;;;;;;;5140161;27;20015;-61
2024/03/29 02:40:14;;;;;;;11.60;10.18;;;;;;;;;;5136360;27;20102;-61
2024/03/29 02:42:40;;;;;;;12.20;11.05;;;;;;;;;;5152610;27;20476;-61
2024/03/29 02:45:07;;;;;;;11.75;10.43;;;;;;;;;;5150134;27;20035;-60
2024/03/29 02:47:33;;;;;;;11.55;10.35;;;;;;;;;;5131748;27;20076;-60
2024/03/29 02:49:59;;;;;;;12.32;10.45;;;;;;;;;;5146610;27;20031;-60
2024/03/29 02:52:25;;;;;;;12.50;11.20;;;;;;;;;;5152303;27;20483;-60
2024/03/29 02:54:51;;;;;;;13.57;10.60;;;;;;;;;;5133718;27;20121;-61
2024/03/29 02:57:17;;;;;;;15.38;12.20;;;;;;;;;;5154647;27;20022;-60
2024/03/29 02:59:43;;;;;;;16.77;13.07;;;;;;;;;;5155886;27;20495;-60
2024/03/29 03:02:09;;;;;;;15.10;12.63;;;;;;;;;;5153561;27;20023;-60
2024/03/29 03:04:35;;;;;;;18.08;13.52;;;;;;;;;;5143568;27;20131;-60
2024/03/29 03:12:30;;;;;;;14.57;12.43;;;;;;;;;;5155825;27;20086;-60
2024/03/29 03:14:59;;;;;;;15.38;13.02;;;;;;;;;;5155816;27;20031;-61
2024/03/29 03:17:26;;;;;;;15.90;12.90;;;;;;;;;;5155695;27;20025;-60
2024/03/29 03:19:53;;;;;;;13.82;12.38;;;;;;;;;;5155669;27;20026;-60
2024/03/29 03:22:19;;;;;;;15.52;13.77;;;;;;;;;;5155723;27;20023;-60
2024/03/29 03:24:45;;;;;;;17.02;13.48;;;;;;;;;;5141048;27;20079;-60
2024/03/29 03:27:11;;;;;;;13.18;11.85;;;;;;;;;;5155567;27;20018;-60
2024/03/29 03:29:37;;;;;;;13.07;11.35;;;;;;;;;;5155518;27;20433;-60
2024/03/29 03:32:03;;;;;;;14.00;12.25;;;;;;;;;;5155188;27;20056;-60
2024/03/29 03:34:30;;;;;;;13.80;11.95;;;;;;;;;;5154179;27;20099;-59
2024/03/29 03:36:56;;;;;;;13.95;11.93;;;;;;;;;;5142109;27;20038;-59
2024/03/29 03:39:22;;;;;;;11.73;10.55;;;;;;;;;;5155329;27;20173;-60
2024/03/29 03:41:48;;;;;;;13.32;11.93;;;;;;;;;;5153661;27;20525;-60
2024/03/29 03:44:14;;;;;;;13.07;11.70;;;;;;;;;;5152873;27;20033;-60
2024/03/29 03:46:40;;;;;;;13.55;12.13;;;;;;;;;;5153344;27;20109;-60
2024/03/29 03:49:06;;;;;;;12.68;11.25;;;;;;;;;;5153738;27;20468;-60
2024/03/29 03:51:32;;;;;;;15.05;11.02;;;;;;;;;;5145308;27;20473;-60
2024/03/29 03:53:58;;;;;;;16.40;11.25;;;;;;;;;;5154621;27;20061;-59
2024/03/29 03:56:24;;;;;;;12.68;11.45;;;;;;;;;;5155170;27;20109;-60
2024/03/29 03:58:50;;;;;;;12.07;10.15;;;;;;;;;;5154863;27;20488;-60
2024/03/29 04:01:16;;;;;;;12.15;10.90;;;;;;;;;;5155073;27;20019;-60
2024/03/29 04:03:42;;;;;;;13.43;11.90;;;;;;;;;;5154999;27;20023;-60
2024/03/29 04:06:08;;;;;;;13.30;11.05;;;;;;;;;;5154787;27;20027;-60
2024/03/29 04:08:34;;;;;;;14.07;11.27;;;;;;;;;;5150851;27;20026;-60
2024/03/29 04:11:04;;;;;;;13.73;10.32;;;;;;;;;;5154946;27;20027;-60
2024/03/29 04:13:30;;;;;;;13.00;10.80;;;;;;;;;;5154735;27;20479;-60
2024/03/29 04:16:05;;;;;;;12.25;10.75;;;;;;;;;;5154607;27;20022;-60
2024/03/29 04:18:31;;;;;;;11.73;10.55;;;;;;;;;;5140480;27;20023;-60
2024/03/29 04:21:00;;;;;;;12.30;10.40;;;;;;;;;;5154526;27;20101;-60
2024/03/29 04:23:26;;;;;;;10.27;9.05;;;;;;;;;;5154645;27;20097;-60
2024/03/29 04:25:56;;;;;;;10.70;9.70;;;;;;;;;;5154105;27;20022;-61
2024/03/29 04:28:22;;;;;;;12.10;10.45;;;;;;;;;;5154195;27;20018;-61
2024/03/29 04:30:53;;;;;;;11.73;9.85;;;;;;;;;;5154353;27;20106;-61
2024/03/29 04:33:19;;;;;;;16.00;10.23;;;;;;;;;;5154288;27;20042;-60
2024/03/29 04:35:58;;;;;;;10.80;9.70;;;;;;;;;;5154231;27;20381;-61
2024/03/29 04:38:24;;;;;;;10.40;8.82;;;;;;;;;;5154223;27;20023;-60
2024/03/29 04:40:52;;;;;;;14.20;9.73;;;;;;;;;;5154054;27;20030;-61
2024/03/29 04:43:18;;;;;;;11.15;9.48;;;;;;;;;;5154407;27;20368;-61
2024/03/29 04:45:44;;;;;;;11.15;10.05;;;;;;;;;;5154283;27;20360;-60
2024/03/29 04:48:10;;;;;;;10.68;9.38;;;;;;;;;;5154019;27;20486;-61
2024/03/29 04:50:36;;;;;;;10.77;9.52;;;;;;;;;;5135507;27;20049;-61
2024/03/29 04:53:02;;;;;;;10.35;8.75;;;;;;;;;;5153753;27;20063;-60
2024/03/29 04:55:28;;;;;;;12.20;9.07;;;;;;;;;;5154191;27;20041;-61
2024/03/29 04:57:54;;;;;;;11.40;9.10;;;;;;;;;;5152475;27;20015;-61
2024/03/29 05:00:20;;;;;;;11.48;9.18;;;;;;;;;;5153201;27;20080;-61
2024/03/29 05:02:46;;;;;;;11.30;8.27;;;;;;;;;;5154147;27;20042;-60
2024/03/29 05:05:13;;;;;;;10.15;9.05;;;;;;;;;;5153545;27;20107;-61
2024/03/29 05:07:39;;;;;;;10.13;8.20;;;;;;;;;;5153765;27;20022;-61
2024/03/29 05:10:06;;;;;;;10.55;8.75;;;;;;;;;;5153686;27;20134;-61
2024/03/29 05:12:33;;;;;;;9.18;7.32;;;;;;;;;;5153653;27;20046;-61
2024/03/29 05:14:59;;;;;;;9.13;8.23;;;;;;;;;;5153614;27;20373;-61
2024/03/29 05:17:26;;;;;;;10.55;7.72;;;;;;;;;;5153408;27;20022;-60
2024/03/29 05:19:53;;;;;;;10.52;9.27;;;;;;;;;;5134525;27;20058;-61
2024/03/29 05:22:19;;;;;;;9.27;8.00;;;;;;;;;;5153424;27;20075;-60
2024/03/29 05:24:45;;;;;;;9.93;8.00;;;;;;;;;;5153650;27;20034;-61
2024/03/29 05:27:12;;;;;;;9.48;8.48;;;;;;;;;;5153216;27;20082;-61
2024/03/29 05:29:38;;;;;;;10.32;7.20;;;;;;;;;;5153582;27;20397;-61
2024/03/29 05:32:04;;;;;;;9.63;8.52;;;;;;;;;;5153239;27;20014;-61
2024/03/29 05:34:30;;;;;;;9.32;8.25;;;;;;;;;;5134513;27;20038;-60
2024/03/29 05:36:56;;;;;;;9.73;7.93;;;;;;;;;;5152922;27;20034;-61
2024/03/29 05:39:22;;;;;;;11.30;7.93;;;;;;;;;;5153095;27;20098;-61
2024/03/29 05:41:48;;;;;;;9.98;8.85;;;;;;;;;;5153275;27;20394;-60
2024/03/29 05:44:14;;;;;;;11.57;8.70;;;;;;;;;;5152804;27;20018;-61
2024/03/29 05:46:40;;;;;;;12.20;8.63;;;;;;;;;;5134447;27;20018;-60
2024/03/29 05:49:07;;;;;;;10.60;9.05;;;;;;;;;;5153117;27;20021;-60
2024/03/29 05:51:36;;;;;;;11.93;10.23;;;;;;;;;;5153193;27;20480;-60
2024/03/29 05:54:05;;;;;;;11.10;9.80;;;;;;;;;;5153043;27;20137;-60
2024/03/29 05:56:32;;;;;;;13.25;11.10;;;;;;;;;;5152956;27;20022;-60
2024/03/29 05:58:58;;;;;;;15.13;11.65;;;;;;;;;;5134657;27;20387;-60
2024/03/29 06:01:24;;;;;;;14.52;13.02;;;;;;;;;;5152999;27;20015;-60
2024/03/29 06:03:54;;;;;;;14.38;12.82;;;;;;;;;;5153155;27;20023;-60
2024/03/29 06:06:23;;;;;;;15.15;13.55;;;;;;;;;;5153033;27;20460;-60
2024/03/29 06:08:50;;;;;;;19.23;15.15;;;;;;;;;;5152875;27;20015;-61
2024/03/29 06:11:16;;;;;;;15.90;14.20;;;;;;;;;;5153266;27;20018;-60
2024/03/29 06:19:05;;;;;;;19.70;17.45;;;;;;;;;;5153069;27;20044;-61
2024/03/29 06:21:40;;;;;;;21.52;17.42;;;;;;;;;;5153011;27;20031;-61
2024/03/29 06:24:07;;;;;;;24.30;20.52;;;;;;;;;;5134554;27;20337;-61
2024/03/29 06:26:33;;;;;;;22.35;19.23;;;;;;;;;;5153265;27;20023;-61
2024/03/29 06:28:59;;;;;;;23.48;20.88;;;;;;;;;;5153261;27;20042;-62
2024/03/29 06:31:25;;;;;;;22.10;19.83;;;;;;;;;;5154262;27;20483;-62
2024/03/29 06:33:51;;;;;;;22.63;20.23;;;;;;;;;;5157178;27;20045;-61
2024/03/29 06:36:17;;;;;;;23.88;21.35;;;;;;;;;;5138582;27;20030;-61
2024/03/29 06:38:44;;;;;;;24.27;21.65;;;;;;;;;;5157125;27;20027;-61
2024/03/29 06:41:10;;;;;;;26.17;23.17;;;;;;;;;;5138519;27;20042;-61
2024/03/29 06:43:36;;;;;;;26.90;23.60;;;;;;;;;;5157134;27;20443;-61
2024/03/29 06:46:03;;;;;;;27.35;24.02;;;;;;;;;;5157154;27;20031;-60
2024/03/29 06:48:31;;;;;;;30.52;25.90;;;;;;;;;;5156793;27;20045;-60
2024/03/29 06:50:58;;;;;;;29.73;26.50;;;;;;;;;;5156941;27;20472;-61
2024/03/29 06:53:24;;;;;;;29.85;24.33;;;;;;;;;;5138234;27;20173;-61
2024/03/29 06:55:50;;;;;;;29.55;25.58;;;;;;;;;;5156933;27;20075;-60
2024/03/29 06:58:16;;;;;;;33.10;28.33;;;;;;;;;;5157023;27;20098;-61
2024/03/29 07:00:44;;;;;;;34.25;27.52;;;;;;;;;;5156752;27;20076;-61
2024/03/29 07:03:10;;;;;;;34.22;26.58;;;;;;;;;;5138108;27;20031;-61
2024/03/29 07:05:36;;;;;;;34.00;26.67;;;;;;;;;;5156610;27;20376;-61
2024/03/29 07:08:02;;;;;;;34.67;27.40;;;;;;;;;;5156307;27;20023;-61
2024/03/29 07:10:28;;;;;;;35.53;28.40;;;;;;;;;;5156634;27;20447;-61
2024/03/29 07:12:54;;;;;;;33.25;26.17;;;;;;;;;;5156872;27;20353;-60
2024/03/29 07:15:20;;;;;;;33.90;26.60;;;;;;;;;;5156370;27;20144;-61
2024/03/29 07:17:50;;;;;;;33.40;26.35;;;;;;;;;;5156817;27;20022;-61
2024/03/29 07:20:16;;;;;;;36.00;28.48;;;;;;;;;;5137759;27;20015;-61
2024/03/29 07:22:42;;;;;;;36.30;28.83;;;;;;;;;;5156626;27;20033;-61
2024/03/29 07:25:08;;;;;;;34.20;28.38;;;;;;;;;;5156118;27;20035;-61
2024/03/29 07:27:43;;;;;;;33.33;27.90;;;;;;;;;;5156258;27;20055;-61
2024/03/29 07:30:11;;;;;;;34.22;28.15;;;;;;;;;;5156284;27;20045;-62
2024/03/29 07:32:37;;;;;;;37.78;29.15;;;;;;;;;;5156055;27;20046;-61
2024/03/29 07:35:03;;;;;;;35.95;29.38;;;;;;;;;;5156602;27;20049;-62
2024/03/29 07:37:29;;;;;;;36.72;29.60;;;;;;;;;;5156124;27;20372;-61
2024/03/29 07:39:55;;;;;;;40.08;31.85;;;;;;;;;;5156291;27;20026;-61
2024/03/29 07:42:22;;;;;;;40.38;33.38;;;;;;;;;;5155988;27;20019;-61
2024/03/29 07:44:48;;;;;;;44.00;33.25;;;;;;;;;;5155985;27;20184;-62
2024/03/29 07:47:14;;;;;;;44.88;34.13;;;;;;;;;;5156075;27;20022;-62
2024/03/29 07:49:40;;;;;;;43.13;33.35;;;;;;;;;;5155988;27;20504;-63
2024/03/29 07:52:08;;;;;;;46.70;34.63;;;;;;;;;;5156035;27;20061;-65
2024/03/29 07:54:34;;;;;;;46.33;33.83;;;;;;;;;;5155878;27;20041;-64
2024/03/29 07:57:01;;;;;;;43.40;33.63;;;;;;;;;;5155974;27;20026;-63
2024/03/29 07:59:27;;;;;;;43.47;33.35;;;;;;;;;;5141765;27;20448;-63
2024/03/29 08:01:54;;;;;;;44.22;33.30;;;;;;;;;;5155694;27;20061;-63
2024/03/29 08:04:20;;;;;;;45.65;32.92;;;;;;;;;;5155929;27;20027;-63
2024/03/29 08:06:46;;;;;;;39.63;30.73;;;;;;;;;;5155268;27;20391;-63
2024/03/29 08:09:14;;;;;;;42.47;32.80;;;;;;;;;;5153022;27;20019;-63
2024/03/29 08:11:40;;;;;;;45.28;32.88;;;;;;;;;;5149227;27;20052;-63
2024/03/29 08:14:07;;;;;;;44.22;31.58;;;;;;;;;;5153566;27;20015;-62
2024/03/29 08:16:33;;;;;;;44.33;32.58;;;;;;;;;;5154687;27;20023;-63
2024/03/29 08:18:59;;;;;;;45.78;33.58;;;;;;;;;;5154548;27;20027;-61
2024/03/29 08:21:27;;;;;;;45.78;33.30;;;;;;;;;;5154495;27;20365;-62
2024/03/29 08:23:54;;;;;;;46.20;34.33;;;;;;;;;;5154397;27;20023;-62
2024/03/29 08:26:21;;;;;;;42.42;31.50;;;;;;;;;;5154632;27;20544;-62
2024/03/29 08:28:47;;;;;;;42.85;31.42;;;;;;;;;;5155141;27;20070;-63
2024/03/29 08:31:13;;;;;;;42.35;31.00;;;;;;;;;;5144618;27;20106;-63
2024/03/29 08:33:39;;;;;;;46.60;31.73;;;;;;;;;;5151121;27;20054;-63
2024/03/29 08:36:09;;;;;;;46.03;30.38;;;;;;;;;;5155162;27;20019;-63
2024/03/29 08:38:36;;;;;;;46.70;32.80;;;;;;;;;;5155027;27;20136;-62
2024/03/29 08:41:02;;;;;;;44.85;31.67;;;;;;;;;;5154971;27;20106;-63
2024/03/29 08:43:28;;;;;;;41.45;29.73;;;;;;;;;;5154958;27;20031;-62
2024/03/29 08:45:54;;;;;;;44.45;29.85;;;;;;;;;;5154721;27;20453;-62
2024/03/29 08:48:20;;;;;;;40.67;28.90;;;;;;;;;;5143693;27;20469;-62
2024/03/29 08:50:46;;;;;;;43.85;30.38;;;;;;;;;;5151478;27;20030;-62
2024/03/29 08:53:12;;;;;;;45.80;31.13;;;;;;;;;;5154670;27;20018;-61
2024/03/29 08:55:40;;;;;;;43.10;31.05;;;;;;;;;;5154268;27;20027;-61
2024/03/29 08:58:06;;;;;;;41.78;30.15;;;;;;;;;;5154891;27;20019;-62
2024/03/29 09:00:32;;;;;;;42.05;29.45;;;;;;;;;;5154931;27;20065;-62
2024/03/29 09:02:58;;;;;;;47.00;30.10;;;;;;;;;;5154646;27;20019;-62
2024/03/29 09:05:29;;;;;;;43.40;30.77;;;;;;;;;;5154654;27;20038;-62
2024/03/29 09:07:55;;;;;;;43.60;30.52;;;;;;;;;;5154462;27;20019;-62
2024/03/29 09:10:22;;;;;;;46.40;30.23;;;;;;;;;;5154530;27;20022;-62
2024/03/29 09:12:48;;;;;;;50.00;34.20;;;;;;;;;;5154402;27;20054;-62
2024/03/29 09:15:15;;;;;;;50.17;34.95;;;;;;;;;;5154514;27;20114;-62
2024/03/29 09:17:41;;;;;;;47.70;34.42;;;;;;;;;;5135535;27;20414;-61
2024/03/29 09:20:08;;;;;;;42.95;32.65;;;;;;;;;;5154555;27;20109;-61
2024/03/29 09:22:34;;;;;;;43.60;31.67;;;;;;;;;;5154338;27;20034;-61
2024/03/29 09:25:00;;;;;;;45.22;32.47;;;;;;;;;;5152386;27;20047;-61
2024/03/29 09:27:27;;;;;;;38.88;29.35;;;;;;;;;;5153878;27;20492;-61
2024/03/29 09:29:55;;;;;;;39.60;29.35;;;;;;;;;;5153881;27;20091;-61
2024/03/29 09:32:22;;;;;;;41.80;31.30;;;;;;;;;;5153994;27;20027;-61
2024/03/29 09:34:48;;;;;;;45.67;31.90;;;;;;;;;;5154199;27;20433;-61
2024/03/29 09:37:15;;;;;;;41.05;30.05;;;;;;;;;;5135273;27;20022;-61
2024/03/29 09:39:41;;;;;;;41.75;30.90;;;;;;;;;;5150533;27;20035;-61
2024/03/29 09:42:07;;;;;;;47.15;31.85;;;;;;;;;;5138404;27;20095;-61
2024/03/29 09:44:37;;;;;;;45.05;32.30;;;;;;;;;;5151633;27;20038;-61
2024/03/29 09:47:04;;;;;;;43.90;31.55;;;;;;;;;;5150385;27;20019;-61
2024/03/29 09:49:33;;;;;;;47.22;32.88;;;;;;;;;;5153651;27;20029;-61
2024/03/29 09:52:03;;;;;;;46.58;31.92;;;;;;;;;;5152178;27;20023;-61
2024/03/29 09:54:29;;;;;;;44.47;32.42;;;;;;;;;;5153146;27;20027;-61
2024/03/29 09:56:58;;;;;;;45.65;32.53;;;;;;;;;;5153411;27;20023;-62
2024/03/29 09:59:27;;;;;;;42.00;31.17;;;;;;;;;;5153470;27;20426;-62
2024/03/29 10:01:55;;;;;;;42.20;33.28;;;;;;;;;;5153785;27;20026;-62
2024/03/29 10:04:21;;;;;;;46.67;34.45;;;;;;;;;;5153765;27;20034;-62
2024/03/29 10:06:53;;;;;;;42.70;32.78;;;;;;;;;;5156936;27;20027;-62
2024/03/29 10:09:19;;;;;;;41.28;31.33;;;;;;;;;;5156715;27;20499;-62
2024/03/29 10:11:46;;;;;;;42.05;31.30;;;;;;;;;;5158261;27;20105;-62
2024/03/29 10:14:12;;;;;;;46.25;32.67;;;;;;;;;;5157847;27;20493;-61
2024/03/29 10:16:38;;;;;;;42.25;30.73;;;;;;;;;;5138967;27;20022;-62
2024/03/29 10:19:06;;;;;;;42.15;32.10;;;;;;;;;;5157717;27;20022;-62
2024/03/29 10:21:33;;;;;;;40.70;29.45;;;;;;;;;;5157645;27;20019;-62
2024/03/29 10:23:59;;;;;;;42.42;29.88;;;;;;;;;;5157562;27;20031;-62
2024/03/29 10:26:25;;;;;;;42.67;29.27;;;;;;;;;;5139225;27;20058;-62
2024/03/29 10:28:51;;;;;;;38.60;29.33;;;;;;;;;;5139070;27;20042;-62
2024/03/29 10:31:19;;;;;;;38.67;28.60;;;;;;;;;;5157660;27;20476;-62
2024/03/29 10:33:45;;;;;;;38.20;28.45;;;;;;;;;;5157319;27;20038;-62
2024/03/29 10:36:14;;;;;;;38.47;28.85;;;;;;;;;;5158143;27;20031;-62
2024/03/29 10:38:41;;;;;;;35.05;27.35;;;;;;;;;;5157524;27;20106;-62
2024/03/29 10:41:08;;;;;;;34.30;25.80;;;;;;;;;;5157527;27;20090;-62
2024/03/29 10:43:35;;;;;;;32.08;24.83;;;;;;;;;;5157458;27;20019;-62
2024/03/29 10:46:01;;;;;;;38.00;26.63;;;;;;;;;;5149238;27;20400;-61
2024/03/29 10:48:28;;;;;;;30.00;24.45;;;;;;;;;;5156966;27;20426;-61
2024/03/29 10:50:54;;;;;;;36.25;25.73;;;;;;;;;;5156792;27;20011;-61
2024/03/29 10:53:22;;;;;;;34.80;25.08;;;;;;;;;;5156820;27;20156;-61
2024/03/29 10:55:51;;;;;;;37.35;25.73;;;;;;;;;;5156682;27;20022;-61
2024/03/29 10:58:19;;;;;;;32.75;26.55;;;;;;;;;;5157125;27;20136;-62
2024/03/29 11:00:50;;;;;;;31.98;24.40;;;;;;;;;;5138122;27;20015;-62
2024/03/29 11:03:20;;;;;;;33.33;25.17;;;;;;;;;;5157236;27;20023;-61
2024/03/29 11:05:50;;;;;;;30.77;23.00;;;;;;;;;;5138548;27;20106;-62
2024/03/29 11:08:23;;;;;;;32.10;24.60;;;;;;;;;;5156972;27;20019;-62
2024/03/29 11:10:50;;;;;;;32.35;24.35;;;;;;;;;;5156795;27;20027;-62
2024/03/29 11:13:38;;;;;;;33.90;26.00;;;;;;;;;;5156808;27;20045;-62
2024/03/29 11:16:05;;;;;;;35.20;25.70;;;;;;;;;;5156565;27;20356;-62
2024/03/29 11:18:31;;;;;;;31.27;25.67;;;;;;;;;;5155775;27;20391;-62
2024/03/29 11:21:02;;;;;;;29.48;23.05;;;;;;;;;;5156414;27;20097;-62
2024/03/29 11:23:28;;;;;;;30.25;24.15;;;;;;;;;;5156413;27;20018;-62
2024/03/29 11:25:59;;;;;;;27.88;20.92;;;11.10;1.00;;;;;;5156484;27;20031;-62
2024/03/29 11:28:29;;;;;;;26.17;20.67;;;12.60;99.90;;;;;;5137853;27;20019;-61
2024/03/29 11:31:04;;;;;;;27.40;22.80;;;12.40;99.90;;;;;;5156500;27;20392;-61
2024/03/29 11:33:48;;;;;;;26.33;22.13;;;12.40;99.90;;;;;;5156223;27;20039;-61
2024/03/29 11:36:13;;;;;;;28.10;21.60;;;12.40;99.90;;;;;;5137702;27;20464;-61
2024/03/29 11:38:40;;;;;;;22.83;19.33;;;12.60;99.90;;;;;;5156168;27;20297;-61
2024/03/29 11:41:09;;;;;;;25.33;19.33;;;12.50;99.90;;;;;;5156276;27;20017;-61
2024/03/29 11:43:36;;;;;;;22.60;17.50;;;12.50;99.90;;;;;;5156111;27;20033;-61
2024/03/29 11:46:05;;;;;;;25.60;19.50;;;12.50;99.90;;;;;;5155957;27;20114;-61
2024/03/29 11:48:31;;;;;;;23.15;19.75;;;12.70;99.90;;;;;;5155904;27;20102;-62
2024/03/29 11:50:58;;;;;;;24.42;19.88;;;12.80;99.90;;;;;;5155952;27;20118;-62
2024/03/29 11:53:24;;;;;;;25.08;18.98;;;12.80;99.90;;;;;;5155840;27;20027;-62
2024/03/29 11:55:53;;;;;;;23.10;17.42;;;12.80;99.90;;;;;;5155936;27;20091;-62
2024/03/29 11:58:21;;;;;;;23.95;16.80;;;12.80;99.90;;;;;;5156084;27;20087;-62
2024/03/29 12:00:48;;;;;;;22.40;17.08;;;12.70;99.90;;;;;;5155868;27;20471;-62
2024/03/29 12:03:16;;;;;;;23.27;18.92;;;12.60;99.90;;;;;;5155949;27;20465;-62
2024/03/29 12:05:45;;;;;;;36.00;26.98;;;12.70;99.90;;;;;;5155573;27;20030;-62
2024/03/29 12:08:11;;;;;;;23.55;19.10;;;12.90;99.90;;;;;;5155685;27;20075;-62
2024/03/29 12:10:37;;;;;;;23.25;18.73;;;;;;;;;;5155750;27;20045;-62
2024/03/29 12:13:04;;;;;;;26.52;17.08;;;;;;;;;;5137021;27;20019;-63
2024/03/29 12:15:31;;;;;;;26.42;18.83;;;;;;;;;;5155573;27;20033;-63
2024/03/29 12:17:58;;;;;;;26.67;16.98;;;;;;;;;;5155472;27;20025;-63
2024/03/29 12:20:24;;;;;;;25.25;18.90;;;;;;;;;;5155313;27;20019;-63
2024/03/29 12:22:50;;;;;;;18.77;16.00;;;;;;;;;;5155375;27;20023;-63
2024/03/29 12:25:17;;;;;;;20.27;16.80;;;;;;;;;;5153846;27;20031;-63
2024/03/29 12:27:44;;;;;;;22.00;16.40;;;;;;;;;;5155457;27;20093;-63
2024/03/29 12:30:10;;;;;;;27.83;17.50;;;;;;;;;;5152111;27;20027;-62
2024/03/29 12:32:36;;;;;;;23.42;16.50;;;;;;;;;;5151241;27;20123;-62
2024/03/29 12:35:12;;;;;;;20.90;15.15;;;;;;;;;;5153037;27;20027;-62
2024/03/29 12:37:38;;;;;;;20.40;15.52;;;;;;;;;;5154468;27;20487;-63
2024/03/29 12:40:11;;;;;;;24.63;16.00;;;;;;;;;;5154065;27;20023;-62
2024/03/29 12:42:40;;;;;;;22.17;16.45;;;;;;;;;;5154161;27;20427;-63
2024/03/29 12:45:07;;;;;;;23.75;14.93;;;;;;;;;;5151366;27;20070;-63
2024/03/29 12:47:33;;;;;;;18.35;14.82;;;;;;;;;;5130424;27;20544;-61
2024/03/29 12:50:03;;;;;;;20.83;16.73;;;;;;;;;;5154481;27;20022;-62
2024/03/29 12:52:37;;;;;;;24.05;16.58;;;;;;;;;;5140574;27;20019;-62
2024/03/29 12:55:07;;;;;;;19.00;14.95;;;;;;;;;;5141122;27;20019;-62
2024/03/29 12:57:34;;;;;;;23.00;16.20;;;;;;;;;;5154827;27;20031;-62
2024/03/29 13:00:00;;;;;;;25.23;17.70;;;;;;;;;;5154726;27;20019;-63
2024/03/29 13:02:26;;;;;;;25.45;17.20;;;;;;;;;;5154797;27;20025;-62
2024/03/29 13:04:52;;;;;;;24.48;17.38;;;13.00;99.90;;;;;;5154648;27;20029;-62
2024/03/29 13:07:18;;;;;;;23.90;16.33;;;13.00;99.90;;;;;;5154736;27;20023;-62
2024/03/29 13:09:43;;;;;;;21.80;17.35;;;13.10;99.90;;;;;;5140078;27;20474;-61
2024/03/29 13:12:09;;;;;;;22.42;17.55;;;13.30;99.90;;;;;;5154358;27;20018;-62
2024/03/29 13:14:35;;;;;;;24.00;16.85;;;13.10;99.90;;;;;;5154577;27;20097;-61
2024/03/29 13:17:00;;;;;;;21.77;18.33;;;13.00;99.90;;;;;;5154225;27;20079;-61
2024/03/29 13:19:26;;;;;;;23.73;18.70;;;12.70;99.90;;;;;;5154251;27;20018;-61
2024/03/29 13:21:52;;;;;;;27.23;19.27;;;13.00;99.90;;;;;;5154315;27;20018;-61
2024/03/29 13:24:18;;;;;;;30.05;19.65;;;12.90;99.90;;;;;;5154003;27;20387;-61
2024/03/29 13:26:43;;;;;;;24.40;19.45;;;12.90;99.90;;;;;;5154127;27;20460;-61
2024/03/29 13:29:13;;;;;;;27.48;19.65;;;13.00;99.90;;;;;;5154088;27;20125;-61
2024/03/29 13:31:38;;;;;;;24.25;19.50;;;12.90;99.90;;;;;;5153939;27;20475;-61
2024/03/29 13:34:11;;;;;;;26.13;19.38;;;13.30;99.90;;;;;;5147937;27;20047;-61
2024/03/29 13:36:38;;;;;;;27.95;18.38;;;13.20;99.90;;;;;;5146659;27;20027;-61
2024/03/29 13:39:04;;;;;;;22.80;19.17;;;13.10;99.90;;;;;;5154086;27;20022;-61
2024/03/29 13:41:30;;;;;;;27.33;18.63;;;13.10;99.90;;;;;;5134994;27;20031;-62
2024/03/29 13:43:56;;;;;;;24.30;18.58;;;12.90;99.90;;;;;;5153896;27;20372;-61
2024/03/29 13:46:21;;;;;;;22.73;19.00;;;13.10;99.90;;;;;;5154224;27;20045;-61
2024/03/29 13:48:48;;;;;;;22.00;17.08;;;13.00;99.90;;;;;;5154013;27;20425;-61
2024/03/29 13:51:13;;;;;;;22.02;17.52;;;12.90;99.90;;;;;;5153646;27;20015;-61
2024/03/29 13:53:41;;;;;;;18.65;16.45;;;13.30;99.90;;;;;;5135099;27;20109;-60
2024/03/29 13:56:07;;;;;;;22.27;17.52;;;12.90;99.90;;;;;;5138802;27;20054;-61
2024/03/29 13:58:33;;;;;;;19.75;16.77;;;;;;;;;;5153010;27;20062;-61
2024/03/29 14:01:01;;;;;;;19.42;15.77;;;;;;;;;;5153300;27;20384;-61
2024/03/29 14:03:27;;;;;;;22.98;17.25;;;;;;;;;;5153039;27;20034;-62
2024/03/29 14:05:53;;;;;;;21.65;16.73;;;;;;;;;;5134607;27;20472;-61
2024/03/29 14:08:19;;;;;;;23.40;16.10;;;;;;;;;;5153287;27;20083;-62
2024/03/29 14:10:45;;;;;;;19.88;16.17;;;;;;;;;;5153368;27;20030;-61
2024/03/29 14:13:11;;;;;;;22.60;16.15;;;;;;;;;;5153333;27;20031;-61
2024/03/29 14:15:37;;;;;;;17.88;15.93;;;;;;;;;;5153440;27;20033;-61